sensor_id;sensor_type;location;lat;lon;timestamp;temperature;humidity
3578;DHT22;1803;48.494;9.696;2022-08-11T03:07:47;14.90;99.90
3578;DHT22;1803;48.494;9.696;2022-08-11T03:10:18;14.90;99.90
3578;DHT22;1803;48.494;9.696;2022-08-11T03:21:23;14.70;99.90
3578;DHT22;1803;48.494;9.696;2022-08-11T03:24:07;14.70;99.90
3578;DHT22;1803;48.494;9.696;2022-08-11T03:31:43;14.60;99.90
3578;DHT22;1803;48.494;9.696;2022-08-11T03:34:21;14.60;99.90
3578;DHT22;1803;48.494;9.696;2022-08-11T03:37:04;14.60;99.90
3578;DHT22;1803;48.494;9.696;2022-08-11T03:42:17;14.60;99.90
3578;DHT22;1803;48.494;9.696;2022-08-11T03:47:39;14.60;99.90
3578;DHT22;1803;48.494;9.696;2022-08-11T03:52:36;14.60;99.90
3578;DHT22;1803;48.494;9.696;2022-08-11T03:55:07;14.60;99.90
3578;DHT22;1803;48.494;9.696;2022-08-11T03:57:44;14.60;99.90
3578;DHT22;1803;48.494;9.696;2022-08-11T04:05:46;14.60;99.90
3578;DHT22;1803;48.494;9.696;2022-08-11T04:08:27;14.70;99.90
3578;DHT22;1803;48.494;9.696;2022-08-11T04:10:59;14.70;99.90
3578;DHT22;1803;48.494;9.696;2022-08-11T04:13:37;14.70;99.90
3578;DHT22;1803;48.494;9.696;2022-08-11T04:21:50;14.70;99.90
3578;DHT22;1803;48.494;9.696;2022-08-11T04:24:32;14.70;99.90
3578;DHT22;1803;48.494;9.696;2022-08-11T04:29:55;14.80;99.90
3578;DHT22;1803;48.494;9.696;2022-08-11T04:32:30;14.70;99.90
3578;DHT22;1803;48.494;9.696;2022-08-11T04:37:54;14.80;99.90
3578;DHT22;1803;48.494;9.696;2022-08-11T04:46:19;14.80;99.90
3578;DHT22;1803;48.494;9.696;2022-08-11T04:58:21;15.00;99.90
3578;DHT22;1803;48.494;9.696;2022-08-11T05:01:15;15.20;99.90
3578;DHT22;1803;48.494;9.696;2022-08-11T05:04:14;15.40;99.90
3578;DHT22;1803;48.494;9.696;2022-08-11T05:07:13;15.50;99.90
3578;DHT22;1803;48.494;9.696;2022-08-11T05:20:50;20.30;99.90
3578;DHT22;1803;48.494;9.696;2022-08-11T05:23:35;22.90;97.70
3578;DHT22;1803;48.494;9.696;2022-08-11T05:26:22;24.50;91.70
3578;DHT22;1803;48.494;9.696;2022-08-11T05:29:23;24.70;85.50
3578;DHT22;1803;48.494;9.696;2022-08-11T05:32:08;23.10;86.50
3578;DHT22;1803;48.494;9.696;2022-08-11T05:34:55;21.70;90.90
3578;DHT22;1803;48.494;9.696;2022-08-11T05:37:41;20.90;92.60
3578;DHT22;1803;48.494;9.696;2022-08-11T05:40:27;21.40;93.40
3578;DHT22;1803;48.494;9.696;2022-08-11T05:43:12;25.00;86.30
3578;DHT22;1803;48.494;9.696;2022-08-11T05:46:00;27.00;76.10
3578;DHT22;1803;48.494;9.696;2022-08-11T05:48:44;29.20;68.00
3578;DHT22;1803;48.494;9.696;2022-08-11T05:51:32;30.80;60.20
3578;DHT22;1803;48.494;9.696;2022-08-11T05:54:17;31.90;55.60
3578;DHT22;1803;48.494;9.696;2022-08-11T05:57:01;32.70;51.90
3578;DHT22;1803;48.494;9.696;2022-08-11T05:59:26;33.40;51.40
3578;DHT22;1803;48.494;9.696;2022-08-11T06:01:59;33.20;48.90
3578;DHT22;1803;48.494;9.696;2022-08-11T06:04:25;34.30;48.50
3578;DHT22;1803;48.494;9.696;2022-08-11T06:07:02;35.10;46.70
3578;DHT22;1803;48.494;9.696;2022-08-11T06:11:59;35.80;44.90
3578;DHT22;1803;48.494;9.696;2022-08-11T06:14:25;36.00;43.70
3578;DHT22;1803;48.494;9.696;2022-08-11T06:16:52;36.60;43.10
3578;DHT22;1803;48.494;9.696;2022-08-11T06:19:19;37.10;42.70
3578;DHT22;1803;48.494;9.696;2022-08-11T06:21:47;37.30;41.70
3578;DHT22;1803;48.494;9.696;2022-08-11T06:24:14;37.60;40.50
3578;DHT22;1803;48.494;9.696;2022-08-11T06:26:40;37.80;40.30
3578;DHT22;1803;48.494;9.696;2022-08-11T06:29:08;38.00;40.00
3578;DHT22;1803;48.494;9.696;2022-08-11T06:31:35;38.80;40.00
3578;DHT22;1803;48.494;9.696;2022-08-11T06:39:14;38.10;38.10
3578;DHT22;1803;48.494;9.696;2022-08-11T06:41:52;38.10;38.60
3578;DHT22;1803;48.494;9.696;2022-08-11T06:47:04;38.60;38.30
3578;DHT22;1803;48.494;9.696;2022-08-11T06:49:32;38.30;37.50
3578;DHT22;1803;48.494;9.696;2022-08-11T06:52:16;38.60;37.40
3578;DHT22;1803;48.494;9.696;2022-08-11T06:54:43;39.50;36.60
3578;DHT22;1803;48.494;9.696;2022-08-11T06:57:12;39.50;36.40
3578;DHT22;1803;48.494;9.696;2022-08-11T06:59:58;39.60;36.10
3578;DHT22;1803;48.494;9.696;2022-08-11T07:13:55;41.60;34.50
3578;DHT22;1803;48.494;9.696;2022-08-11T07:16:42;42.10;33.90
3578;DHT22;1803;48.494;9.696;2022-08-11T07:19:08;41.60;33.70
3578;DHT22;1803;48.494;9.696;2022-08-11T07:21:54;41.90;33.50
3578;DHT22;1803;48.494;9.696;2022-08-11T07:24:40;41.70;33.60
3578;DHT22;1803;48.494;9.696;2022-08-11T07:27:27;42.10;33.10
3578;DHT22;1803;48.494;9.696;2022-08-11T07:30:12;41.10;33.40
3578;DHT22;1803;48.494;9.696;2022-08-11T07:32:48;41.50;33.50
3578;DHT22;1803;48.494;9.696;2022-08-11T07:35:20;41.00;33.30
3578;DHT22;1803;48.494;9.696;2022-08-11T07:37:46;40.80;33.30
3578;DHT22;1803;48.494;9.696;2022-08-11T07:40:13;40.20;33.30
3578;DHT22;1803;48.494;9.696;2022-08-11T07:42:40;39.50;34.10
3578;DHT22;1803;48.494;9.696;2022-08-11T07:45:10;40.20;33.90
3578;DHT22;1803;48.494;9.696;2022-08-11T07:47:55;40.30;33.40
3578;DHT22;1803;48.494;9.696;2022-08-11T07:50:40;40.10;33.50
3578;DHT22;1803;48.494;9.696;2022-08-11T07:53:25;40.60;33.50
3578;DHT22;1803;48.494;9.696;2022-08-11T07:55:51;40.40;33.40
3578;DHT22;1803;48.494;9.696;2022-08-11T07:58:19;41.00;33.10
3578;DHT22;1803;48.494;9.696;2022-08-11T08:01:03;40.50;33.40
3578;DHT22;1803;48.494;9.696;2022-08-11T08:03:47;39.80;33.70
3578;DHT22;1803;48.494;9.696;2022-08-11T08:06:32;40.20;34.00
3578;DHT22;1803;48.494;9.696;2022-08-11T08:09:17;40.40;33.90
3578;DHT22;1803;48.494;9.696;2022-08-11T08:12:03;40.40;33.70
3578;DHT22;1803;48.494;9.696;2022-08-11T08:14:47;40.50;34.20
3578;DHT22;1803;48.494;9.696;2022-08-11T08:17:31;39.40;34.20
3578;DHT22;1803;48.494;9.696;2022-08-11T08:20:15;38.20;34.50
3578;DHT22;1803;48.494;9.696;2022-08-11T08:22:42;37.80;35.70
3578;DHT22;1803;48.494;9.696;2022-08-11T08:25:07;36.30;37.00
3578;DHT22;1803;48.494;9.696;2022-08-11T08:27:34;35.90;37.50
3578;DHT22;1803;48.494;9.696;2022-08-11T08:30:00;35.30;38.10
3578;DHT22;1803;48.494;9.696;2022-08-11T08:32:44;35.30;38.50
3578;DHT22;1803;48.494;9.696;2022-08-11T08:35:10;34.50;38.30
3578;DHT22;1803;48.494;9.696;2022-08-11T08:37:36;33.30;39.70
3578;DHT22;1803;48.494;9.696;2022-08-11T08:40:03;32.50;40.50
3578;DHT22;1803;48.494;9.696;2022-08-11T08:42:31;32.10;40.80
3578;DHT22;1803;48.494;9.696;2022-08-11T08:45:01;31.60;41.90
3578;DHT22;1803;48.494;9.696;2022-08-11T08:47:28;31.10;41.80
3578;DHT22;1803;48.494;9.696;2022-08-11T08:49:58;30.30;43.20
3578;DHT22;1803;48.494;9.696;2022-08-11T08:52:24;29.70;43.80
3578;DHT22;1803;48.494;9.696;2022-08-11T08:54:53;29.30;44.80
3578;DHT22;1803;48.494;9.696;2022-08-11T08:57:23;29.00;44.90
3578;DHT22;1803;48.494;9.696;2022-08-11T08:59:51;28.90;45.40
3578;DHT22;1803;48.494;9.696;2022-08-11T09:02:18;28.40;46.90
3578;DHT22;1803;48.494;9.696;2022-08-11T09:04:44;28.30;46.40
3578;DHT22;1803;48.494;9.696;2022-08-11T09:07:17;27.80;46.90
3578;DHT22;1803;48.494;9.696;2022-08-11T09:09:43;27.60;47.80
3578;DHT22;1803;48.494;9.696;2022-08-11T09:12:09;27.90;47.80
3578;DHT22;1803;48.494;9.696;2022-08-11T09:14:37;27.90;48.00
3578;DHT22;1803;48.494;9.696;2022-08-11T09:17:22;28.00;47.20
3578;DHT22;1803;48.494;9.696;2022-08-11T09:19:48;28.30;47.10
3578;DHT22;1803;48.494;9.696;2022-08-11T09:22:18;28.40;47.30
3578;DHT22;1803;48.494;9.696;2022-08-11T09:25:03;28.40;47.00
3578;DHT22;1803;48.494;9.696;2022-08-11T09:27:48;28.20;46.50
3578;DHT22;1803;48.494;9.696;2022-08-11T09:30:14;27.70;46.30
3578;DHT22;1803;48.494;9.696;2022-08-11T09:32:40;27.80;47.00
3578;DHT22;1803;48.494;9.696;2022-08-11T09:35:06;28.10;46.20
3578;DHT22;1803;48.494;9.696;2022-08-11T09:37:32;28.20;46.50
3578;DHT22;1803;48.494;9.696;2022-08-11T09:40:16;28.00;47.30
3578;DHT22;1803;48.494;9.696;2022-08-11T09:42:57;28.20;47.00
3578;DHT22;1803;48.494;9.696;2022-08-11T09:45:48;28.30;46.50
3578;DHT22;1803;48.494;9.696;2022-08-11T09:48:17;28.40;46.40
3578;DHT22;1803;48.494;9.696;2022-08-11T09:50:44;28.70;46.50
3578;DHT22;1803;48.494;9.696;2022-08-11T09:53:10;28.60;46.00
3578;DHT22;1803;48.494;9.696;2022-08-11T09:55:36;28.40;46.40
3578;DHT22;1803;48.494;9.696;2022-08-11T09:58:02;28.10;45.60
3578;DHT22;1803;48.494;9.696;2022-08-11T10:00:44;28.00;46.50
3578;DHT22;1803;48.494;9.696;2022-08-11T10:03:15;27.80;46.40
3578;DHT22;1803;48.494;9.696;2022-08-11T10:05:45;27.50;45.90
3578;DHT22;1803;48.494;9.696;2022-08-11T10:08:30;27.70;46.30
3578;DHT22;1803;48.494;9.696;2022-08-11T10:10:57;27.90;46.60
3578;DHT22;1803;48.494;9.696;2022-08-11T10:13:25;28.10;47.00
3578;DHT22;1803;48.494;9.696;2022-08-11T10:15:54;27.90;46.80
3578;DHT22;1803;48.494;9.696;2022-08-11T10:18:23;27.90;46.70
3578;DHT22;1803;48.494;9.696;2022-08-11T10:21:13;27.60;46.60
3578;DHT22;1803;48.494;9.696;2022-08-11T10:23:39;27.80;46.40
3578;DHT22;1803;48.494;9.696;2022-08-11T10:26:26;27.70;46.50
3578;DHT22;1803;48.494;9.696;2022-08-11T10:29:10;27.50;46.90
3578;DHT22;1803;48.494;9.696;2022-08-11T10:31:55;27.40;46.80
3578;DHT22;1803;48.494;9.696;2022-08-11T10:34:40;27.60;47.00
3578;DHT22;1803;48.494;9.696;2022-08-11T10:37:07;27.60;46.60
3578;DHT22;1803;48.494;9.696;2022-08-11T10:39:33;27.80;45.80
3578;DHT22;1803;48.494;9.696;2022-08-11T10:41:59;28.00;46.00
3578;DHT22;1803;48.494;9.696;2022-08-11T10:44:44;27.70;46.00
3578;DHT22;1803;48.494;9.696;2022-08-11T10:47:12;27.70;46.70
3578;DHT22;1803;48.494;9.696;2022-08-11T10:49:57;27.80;46.30
3578;DHT22;1803;48.494;9.696;2022-08-11T10:52:41;27.50;46.90
3578;DHT22;1803;48.494;9.696;2022-08-11T10:55:26;27.60;47.90
3578;DHT22;1803;48.494;9.696;2022-08-11T10:58:11;27.90;46.60
3578;DHT22;1803;48.494;9.696;2022-08-11T11:00:55;27.80;45.90
3578;DHT22;1803;48.494;9.696;2022-08-11T11:03:27;27.60;46.00
3578;DHT22;1803;48.494;9.696;2022-08-11T11:05:54;27.60;46.10
3578;DHT22;1803;48.494;9.696;2022-08-11T11:08:21;27.40;46.30
3578;DHT22;1803;48.494;9.696;2022-08-11T11:11:09;27.60;46.40
3578;DHT22;1803;48.494;9.696;2022-08-11T11:13:36;27.60;45.90
3578;DHT22;1803;48.494;9.696;2022-08-11T11:16:21;27.50;46.60
3578;DHT22;1803;48.494;9.696;2022-08-11T11:19:06;27.50;47.00
3578;DHT22;1803;48.494;9.696;2022-08-11T11:21:32;27.60;46.90
3578;DHT22;1803;48.494;9.696;2022-08-11T11:34:40;27.60;47.00
3578;DHT22;1803;48.494;9.696;2022-08-11T11:37:08;27.60;47.30
3578;DHT22;1803;48.494;9.696;2022-08-11T11:39:36;27.60;47.40
3578;DHT22;1803;48.494;9.696;2022-08-11T11:42:02;27.60;47.70
3578;DHT22;1803;48.494;9.696;2022-08-11T11:44:28;27.60;47.70
3578;DHT22;1803;48.494;9.696;2022-08-11T11:46:54;27.90;47.70
3578;DHT22;1803;48.494;9.696;2022-08-11T11:49:21;27.80;47.00
3578;DHT22;1803;48.494;9.696;2022-08-11T11:51:48;27.70;47.00
3578;DHT22;1803;48.494;9.696;2022-08-11T11:54:14;27.30;47.70
3578;DHT22;1803;48.494;9.696;2022-08-11T11:56:40;27.20;47.80
3578;DHT22;1803;48.494;9.696;2022-08-11T11:59:06;27.00;48.20
3578;DHT22;1803;48.494;9.696;2022-08-11T12:01:51;27.10;47.90
3578;DHT22;1803;48.494;9.696;2022-08-11T12:04:17;27.10;48.30
3578;DHT22;1803;48.494;9.696;2022-08-11T12:06:44;27.10;48.20
3578;DHT22;1803;48.494;9.696;2022-08-11T12:09:11;27.30;47.70
3578;DHT22;1803;48.494;9.696;2022-08-11T12:11:39;27.30;48.10
3578;DHT22;1803;48.494;9.696;2022-08-11T12:14:24;27.40;48.40
3578;DHT22;1803;48.494;9.696;2022-08-11T12:16:52;27.30;47.20
3578;DHT22;1803;48.494;9.696;2022-08-11T12:19:21;27.20;48.30
3578;DHT22;1803;48.494;9.696;2022-08-11T12:21:47;27.20;47.20
3578;DHT22;1803;48.494;9.696;2022-08-11T12:24:31;27.10;47.10
3578;DHT22;1803;48.494;9.696;2022-08-11T12:27:16;26.80;48.50
3578;DHT22;1803;48.494;9.696;2022-08-11T12:29:46;26.60;48.70
3578;DHT22;1803;48.494;9.696;2022-08-11T12:32:12;26.70;49.40
3578;DHT22;1803;48.494;9.696;2022-08-11T12:34:37;26.70;49.00
3578;DHT22;1803;48.494;9.696;2022-08-11T12:37:03;26.30;47.60
3578;DHT22;1803;48.494;9.696;2022-08-11T12:39:37;26.30;48.30
3578;DHT22;1803;48.494;9.696;2022-08-11T12:42:22;26.20;49.10
3578;DHT22;1803;48.494;9.696;2022-08-11T12:45:07;26.10;49.00
3578;DHT22;1803;48.494;9.696;2022-08-11T12:48:39;26.30;48.40
3578;DHT22;1803;48.494;9.696;2022-08-11T12:51:00;26.30;49.30
3578;DHT22;1803;48.494;9.696;2022-08-11T12:53:52;26.30;49.30
3578;DHT22;1803;48.494;9.696;2022-08-11T12:56:18;26.40;50.10
3578;DHT22;1803;48.494;9.696;2022-08-11T12:59:02;26.40;50.10
3578;DHT22;1803;48.494;9.696;2022-08-11T13:01:47;26.30;50.10
3578;DHT22;1803;48.494;9.696;2022-08-11T13:04:32;26.40;49.60
3578;DHT22;1803;48.494;9.696;2022-08-11T13:07:16;26.30;49.60
3578;DHT22;1803;48.494;9.696;2022-08-11T13:09:42;26.20;49.40
3578;DHT22;1803;48.494;9.696;2022-08-11T13:12:08;26.20;49.80
3578;DHT22;1803;48.494;9.696;2022-08-11T13:14:53;26.20;50.10
3578;DHT22;1803;48.494;9.696;2022-08-11T13:17:18;26.10;49.50
3578;DHT22;1803;48.494;9.696;2022-08-11T13:19:47;26.00;49.30
3578;DHT22;1803;48.494;9.696;2022-08-11T13:22:16;26.20;49.80
3578;DHT22;1803;48.494;9.696;2022-08-11T13:24:43;26.20;49.10
3578;DHT22;1803;48.494;9.696;2022-08-11T13:27:09;26.20;49.10
3578;DHT22;1803;48.494;9.696;2022-08-11T13:29:36;26.20;49.10
3578;DHT22;1803;48.494;9.696;2022-08-11T13:32:02;26.10;49.50
3578;DHT22;1803;48.494;9.696;2022-08-11T13:34:28;26.10;50.20
3578;DHT22;1803;48.494;9.696;2022-08-11T13:36:58;26.10;49.60
3578;DHT22;1803;48.494;9.696;2022-08-11T13:39:25;26.10;49.90
3578;DHT22;1803;48.494;9.696;2022-08-11T13:41:52;26.10;49.90
3578;DHT22;1803;48.494;9.696;2022-08-11T13:44:19;26.30;50.10
3578;DHT22;1803;48.494;9.696;2022-08-11T13:46:44;26.30;49.60
3578;DHT22;1803;48.494;9.696;2022-08-11T13:49:10;26.30;49.70
3578;DHT22;1803;48.494;9.696;2022-08-11T13:51:40;26.20;49.80
3578;DHT22;1803;48.494;9.696;2022-08-11T13:54:10;26.10;49.40
3578;DHT22;1803;48.494;9.696;2022-08-11T13:56:37;26.20;50.00
3578;DHT22;1803;48.494;9.696;2022-08-11T13:59:06;26.20;50.20
3578;DHT22;1803;48.494;9.696;2022-08-11T14:01:33;26.20;49.10
3578;DHT22;1803;48.494;9.696;2022-08-11T14:04:04;26.10;49.40
3578;DHT22;1803;48.494;9.696;2022-08-11T14:06:30;26.10;49.10
3578;DHT22;1803;48.494;9.696;2022-08-11T14:08:55;26.10;49.30
3578;DHT22;1803;48.494;9.696;2022-08-11T14:11:22;26.10;49.10
3578;DHT22;1803;48.494;9.696;2022-08-11T14:14:06;26.00;49.20
3578;DHT22;1803;48.494;9.696;2022-08-11T14:16:34;26.10;49.10
3578;DHT22;1803;48.494;9.696;2022-08-11T14:19:06;26.00;48.70
3578;DHT22;1803;48.494;9.696;2022-08-11T14:21:35;25.90;48.20
3578;DHT22;1803;48.494;9.696;2022-08-11T14:24:21;25.90;48.50
3578;DHT22;1803;48.494;9.696;2022-08-11T14:26:47;25.80;48.60
3578;DHT22;1803;48.494;9.696;2022-08-11T14:29:22;25.80;48.50
3578;DHT22;1803;48.494;9.696;2022-08-11T14:31:50;25.70;48.70
3578;DHT22;1803;48.494;9.696;2022-08-11T14:34:17;25.90;49.10
3578;DHT22;1803;48.494;9.696;2022-08-11T14:36:46;25.90;49.10
3578;DHT22;1803;48.494;9.696;2022-08-11T14:39:16;25.90;48.90
3578;DHT22;1803;48.494;9.696;2022-08-11T14:41:43;25.90;49.00
3578;DHT22;1803;48.494;9.696;2022-08-11T14:44:29;25.90;49.40
3578;DHT22;1803;48.494;9.696;2022-08-11T14:47:14;25.70;48.80
3578;DHT22;1803;48.494;9.696;2022-08-11T14:49:40;25.70;48.40
3578;DHT22;1803;48.494;9.696;2022-08-11T14:52:07;25.70;48.90
3578;DHT22;1803;48.494;9.696;2022-08-11T14:54:33;25.70;48.90
3578;DHT22;1803;48.494;9.696;2022-08-11T14:57:19;25.70;48.60
3578;DHT22;1803;48.494;9.696;2022-08-11T14:59:45;25.70;48.10
3578;DHT22;1803;48.494;9.696;2022-08-11T15:02:12;25.70;48.10
3578;DHT22;1803;48.494;9.696;2022-08-11T15:04:57;25.70;48.50
3578;DHT22;1803;48.494;9.696;2022-08-11T15:07:24;25.80;48.70
3578;DHT22;1803;48.494;9.696;2022-08-11T15:09:57;25.70;47.90
3578;DHT22;1803;48.494;9.696;2022-08-11T15:12:23;25.80;47.90
3578;DHT22;1803;48.494;9.696;2022-08-11T15:14:48;25.80;47.90
3578;DHT22;1803;48.494;9.696;2022-08-11T15:17:33;25.70;47.50
3578;DHT22;1803;48.494;9.696;2022-08-11T15:19:59;25.60;47.70
3578;DHT22;1803;48.494;9.696;2022-08-11T15:22:45;25.40;47.40
3578;DHT22;1803;48.494;9.696;2022-08-11T15:25:30;25.40;48.00
3578;DHT22;1803;48.494;9.696;2022-08-11T15:27:59;25.30;48.10
3578;DHT22;1803;48.494;9.696;2022-08-11T15:30:49;25.30;48.30
3578;DHT22;1803;48.494;9.696;2022-08-11T15:33:34;25.30;48.10
3578;DHT22;1803;48.494;9.696;2022-08-11T15:36:20;25.30;49.20
3578;DHT22;1803;48.494;9.696;2022-08-11T15:39:12;25.20;49.20
3578;DHT22;1803;48.494;9.696;2022-08-11T15:41:43;25.20;49.60
3578;DHT22;1803;48.494;9.696;2022-08-11T15:44:29;25.20;49.50
3578;DHT22;1803;48.494;9.696;2022-08-11T15:47:14;25.00;49.00
3578;DHT22;1803;48.494;9.696;2022-08-11T15:49:40;25.00;49.20
3578;DHT22;1803;48.494;9.696;2022-08-11T15:52:18;25.00;49.10
3578;DHT22;1803;48.494;9.696;2022-08-11T15:54:46;25.00;48.70
3578;DHT22;1803;48.494;9.696;2022-08-11T15:57:11;25.00;48.90
3578;DHT22;1803;48.494;9.696;2022-08-11T16:00:00;25.00;48.70
3578;DHT22;1803;48.494;9.696;2022-08-11T16:02:45;24.90;48.20
3578;DHT22;1803;48.494;9.696;2022-08-11T16:05:31;25.00;48.50
3578;DHT22;1803;48.494;9.696;2022-08-11T16:07:58;25.00;48.30
3578;DHT22;1803;48.494;9.696;2022-08-11T16:10:23;25.00;48.00
3578;DHT22;1803;48.494;9.696;2022-08-11T16:12:53;24.90;48.40
3578;DHT22;1803;48.494;9.696;2022-08-11T16:15:30;24.90;48.40
3578;DHT22;1803;48.494;9.696;2022-08-11T16:18:15;24.90;48.30
3578;DHT22;1803;48.494;9.696;2022-08-11T16:20:43;24.80;48.30
3578;DHT22;1803;48.494;9.696;2022-08-11T16:23:09;24.70;48.40
3578;DHT22;1803;48.494;9.696;2022-08-11T16:25:35;24.70;48.30
3578;DHT22;1803;48.494;9.696;2022-08-11T16:28:03;24.70;48.80
3578;DHT22;1803;48.494;9.696;2022-08-11T16:30:30;24.80;48.60
3578;DHT22;1803;48.494;9.696;2022-08-11T16:32:56;24.70;48.00
3578;DHT22;1803;48.494;9.696;2022-08-11T16:35:23;24.60;48.00
3578;DHT22;1803;48.494;9.696;2022-08-11T16:38:07;24.60;48.10
3578;DHT22;1803;48.494;9.696;2022-08-11T16:40:53;24.50;48.20
3578;DHT22;1803;48.494;9.696;2022-08-11T16:43:20;24.50;48.60
3578;DHT22;1803;48.494;9.696;2022-08-11T16:46:05;24.40;48.60
3578;DHT22;1803;48.494;9.696;2022-08-11T16:48:50;24.40;48.80
3578;DHT22;1803;48.494;9.696;2022-08-11T16:51:18;24.40;49.10
3578;DHT22;1803;48.494;9.696;2022-08-11T16:53:46;24.30;48.70
3578;DHT22;1803;48.494;9.696;2022-08-11T16:56:12;24.20;48.00
3578;DHT22;1803;48.494;9.696;2022-08-11T16:58:41;24.20;47.70
3578;DHT22;1803;48.494;9.696;2022-08-11T17:01:26;24.10;47.80
3578;DHT22;1803;48.494;9.696;2022-08-11T17:03:56;24.10;47.50
3578;DHT22;1803;48.494;9.696;2022-08-11T17:06:43;24.10;47.70
3578;DHT22;1803;48.494;9.696;2022-08-11T17:09:28;23.90;47.30
3578;DHT22;1803;48.494;9.696;2022-08-11T17:12:32;23.90;47.00
3578;DHT22;1803;48.494;9.696;2022-08-11T17:15:18;23.90;47.30
3578;DHT22;1803;48.494;9.696;2022-08-11T17:18:04;23.90;47.30
3578;DHT22;1803;48.494;9.696;2022-08-11T17:20:30;23.80;46.80
3578;DHT22;1803;48.494;9.696;2022-08-11T17:22:56;23.70;47.10
3578;DHT22;1803;48.494;9.696;2022-08-11T17:25:41;23.70;47.10
3578;DHT22;1803;48.494;9.696;2022-08-11T17:28:07;23.60;47.40
3578;DHT22;1803;48.494;9.696;2022-08-11T17:30:33;23.50;47.70
3578;DHT22;1803;48.494;9.696;2022-08-11T17:33:18;23.50;48.10
3578;DHT22;1803;48.494;9.696;2022-08-11T17:36:04;23.50;48.50
3578;DHT22;1803;48.494;9.696;2022-08-11T17:38:30;23.40;48.80
3578;DHT22;1803;48.494;9.696;2022-08-11T17:40:59;23.30;48.80
3578;DHT22;1803;48.494;9.696;2022-08-11T17:43:44;23.20;48.70
3578;DHT22;1803;48.494;9.696;2022-08-11T17:46:28;23.10;48.60
3578;DHT22;1803;48.494;9.696;2022-08-11T17:49:13;23.10;49.00
3578;DHT22;1803;48.494;9.696;2022-08-11T17:51:39;23.00;49.30
3578;DHT22;1803;48.494;9.696;2022-08-11T17:54:25;22.90;49.40
3578;DHT22;1803;48.494;9.696;2022-08-11T17:57:10;22.90;49.60
3578;DHT22;1803;48.494;9.696;2022-08-11T17:59:54;22.80;49.90
3578;DHT22;1803;48.494;9.696;2022-08-11T18:02:35;22.70;50.30
3578;DHT22;1803;48.494;9.696;2022-08-11T18:05:23;22.60;50.60
3578;DHT22;1803;48.494;9.696;2022-08-11T18:07:49;22.60;50.40
3578;DHT22;1803;48.494;9.696;2022-08-11T18:10:34;22.50;50.50
3578;DHT22;1803;48.494;9.696;2022-08-11T18:13:19;22.40;51.00
3578;DHT22;1803;48.494;9.696;2022-08-11T18:16:04;22.30;50.70
3578;DHT22;1803;48.494;9.696;2022-08-11T18:18:48;22.10;51.00
3578;DHT22;1803;48.494;9.696;2022-08-11T18:21:32;22.00;51.30
3578;DHT22;1803;48.494;9.696;2022-08-11T18:24:17;21.90;51.30
3578;DHT22;1803;48.494;9.696;2022-08-11T18:27:03;21.70;51.50
3578;DHT22;1803;48.494;9.696;2022-08-11T18:29:49;21.60;51.70
3578;DHT22;1803;48.494;9.696;2022-08-11T18:32:34;21.50;51.90
3578;DHT22;1803;48.494;9.696;2022-08-11T18:35:19;21.40;52.10
3578;DHT22;1803;48.494;9.696;2022-08-11T18:38:03;21.40;52.20
3578;DHT22;1803;48.494;9.696;2022-08-11T18:40:49;21.30;52.30
3578;DHT22;1803;48.494;9.696;2022-08-11T18:43:34;21.20;52.50
3578;DHT22;1803;48.494;9.696;2022-08-11T18:46:20;21.10;52.90
3578;DHT22;1803;48.494;9.696;2022-08-11T18:49:09;21.10;53.20
3578;DHT22;1803;48.494;9.696;2022-08-11T18:51:55;21.00;53.20
3578;DHT22;1803;48.494;9.696;2022-08-11T18:54:40;20.90;53.20
3578;DHT22;1803;48.494;9.696;2022-08-11T18:57:25;20.90;52.80
3578;DHT22;1803;48.494;9.696;2022-08-11T19:00:10;20.80;53.30
3578;DHT22;1803;48.494;9.696;2022-08-11T19:02:54;20.80;53.20
3578;DHT22;1803;48.494;9.696;2022-08-11T19:05:39;20.70;53.10
3578;DHT22;1803;48.494;9.696;2022-08-11T19:08:29;20.60;53.50
3578;DHT22;1803;48.494;9.696;2022-08-11T19:11:14;20.60;53.90
3578;DHT22;1803;48.494;9.696;2022-08-11T19:13:59;20.50;54.10
3578;DHT22;1803;48.494;9.696;2022-08-11T19:16:44;20.40;54.40
3578;DHT22;1803;48.494;9.696;2022-08-11T19:19:28;20.30;54.40
3578;DHT22;1803;48.494;9.696;2022-08-11T19:22:14;20.20;54.20
3578;DHT22;1803;48.494;9.696;2022-08-11T19:24:59;20.10;54.50
3578;DHT22;1803;48.494;9.696;2022-08-11T19:27:44;20.10;54.40
3578;DHT22;1803;48.494;9.696;2022-08-11T19:30:29;20.00;54.50
3578;DHT22;1803;48.494;9.696;2022-08-11T19:33:14;20.00;54.60
3578;DHT22;1803;48.494;9.696;2022-08-11T19:35:59;19.90;54.90
3578;DHT22;1803;48.494;9.696;2022-08-11T19:38:43;19.90;55.00
3578;DHT22;1803;48.494;9.696;2022-08-11T19:41:28;19.80;55.20
3578;DHT22;1803;48.494;9.696;2022-08-11T19:44:12;19.80;55.40
3578;DHT22;1803;48.494;9.696;2022-08-11T19:46:58;19.70;56.10
3578;DHT22;1803;48.494;9.696;2022-08-11T19:49:43;19.60;55.70
3578;DHT22;1803;48.494;9.696;2022-08-11T19:52:28;19.60;56.00
3578;DHT22;1803;48.494;9.696;2022-08-11T19:55:12;19.50;56.20
3578;DHT22;1803;48.494;9.696;2022-08-11T19:57:57;19.40;56.30
3578;DHT22;1803;48.494;9.696;2022-08-11T20:00:41;19.30;56.60
3578;DHT22;1803;48.494;9.696;2022-08-11T20:03:26;19.30;56.70
3578;DHT22;1803;48.494;9.696;2022-08-11T20:06:10;19.20;56.50
3578;DHT22;1803;48.494;9.696;2022-08-11T20:08:58;19.20;56.70
3578;DHT22;1803;48.494;9.696;2022-08-11T20:11:43;19.10;56.80
3578;DHT22;1803;48.494;9.696;2022-08-11T20:14:29;19.10;57.40
3578;DHT22;1803;48.494;9.696;2022-08-11T20:17:13;19.00;57.40
3578;DHT22;1803;48.494;9.696;2022-08-11T20:19:58;18.90;57.80
3578;DHT22;1803;48.494;9.696;2022-08-11T20:22:45;18.80;57.50
3578;DHT22;1803;48.494;9.696;2022-08-11T20:25:30;18.80;57.80
3578;DHT22;1803;48.494;9.696;2022-08-11T20:28:15;18.70;58.00
3578;DHT22;1803;48.494;9.696;2022-08-11T20:30:59;18.70;58.30
3578;DHT22;1803;48.494;9.696;2022-08-11T20:33:45;18.60;58.20
3578;DHT22;1803;48.494;9.696;2022-08-11T20:36:29;18.50;58.40
3578;DHT22;1803;48.494;9.696;2022-08-11T20:39:14;18.50;58.60
3578;DHT22;1803;48.494;9.696;2022-08-11T20:41:59;18.50;58.70
3578;DHT22;1803;48.494;9.696;2022-08-11T20:44:43;18.40;58.70
3578;DHT22;1803;48.494;9.696;2022-08-11T20:47:27;18.40;58.80
3578;DHT22;1803;48.494;9.696;2022-08-11T20:50:12;18.40;58.80
3578;DHT22;1803;48.494;9.696;2022-08-11T20:52:56;18.40;58.90
3578;DHT22;1803;48.494;9.696;2022-08-11T20:55:41;18.40;59.00
3578;DHT22;1803;48.494;9.696;2022-08-11T20:58:26;18.30;59.00
3578;DHT22;1803;48.494;9.696;2022-08-11T21:01:11;18.30;59.30
3578;DHT22;1803;48.494;9.696;2022-08-11T21:03:56;18.20;59.40
3578;DHT22;1803;48.494;9.696;2022-08-11T21:06:40;18.10;60.60
3578;DHT22;1803;48.494;9.696;2022-08-11T21:09:24;18.10;59.80
3578;DHT22;1803;48.494;9.696;2022-08-11T21:12:09;18.00;59.60
3578;DHT22;1803;48.494;9.696;2022-08-11T21:14:53;18.00;59.70
3578;DHT22;1803;48.494;9.696;2022-08-11T21:17:38;18.00;59.80
3578;DHT22;1803;48.494;9.696;2022-08-11T21:20:24;18.00;60.00
3578;DHT22;1803;48.494;9.696;2022-08-11T21:23:09;18.00;60.30
3578;DHT22;1803;48.494;9.696;2022-08-11T21:26:01;18.00;60.40
3578;DHT22;1803;48.494;9.696;2022-08-11T21:28:47;18.00;60.50
3578;DHT22;1803;48.494;9.696;2022-08-11T21:31:32;18.00;60.60
3578;DHT22;1803;48.494;9.696;2022-08-11T21:34:17;17.90;60.70
3578;DHT22;1803;48.494;9.696;2022-08-11T21:37:02;17.90;61.00
3578;DHT22;1803;48.494;9.696;2022-08-11T21:39:48;17.90;61.20
3578;DHT22;1803;48.494;9.696;2022-08-11T21:42:33;17.90;60.90
3578;DHT22;1803;48.494;9.696;2022-08-11T21:45:19;17.90;61.10
3578;DHT22;1803;48.494;9.696;2022-08-11T21:48:04;18.00;61.20